createdAt,value
2023-04-14T00:01:15.028Z,99710.75
2023-04-14T00:06:37.122Z,99715.34
2023-04-14T00:11:58.932Z,99716.38
2023-04-14T00:17:20.797Z,99735.25
2023-04-14T00:22:42.666Z,99736.63
2023-04-14T00:28:04.577Z,99733.22
2023-04-14T00:33:26.416Z,99730.22
2023-04-14T00:38:48.261Z,99726.63
2023-04-14T00:44:10.113Z,99720.59
2023-04-14T00:49:32.118Z,99705.41
2023-04-14T00:54:54.104Z,99706.28
2023-04-14T01:00:16.296Z,99705.50
2023-04-14T01:05:38.152Z,99710.66
2023-04-14T01:11:20.768Z,99717.84
2023-04-14T01:16:43.329Z,99720.75
2023-04-14T01:22:09.199Z,99718.22
2023-04-14T01:27:36.335Z,99704.72
2023-04-14T01:33:03.530Z,99713.97
2023-04-14T01:38:27.717Z,99733.22
2023-04-14T01:43:53.822Z,99736.78
2023-04-14T01:49:18.222Z,99741.13
2023-04-14T01:54:42.583Z,99745.34
2023-04-14T02:00:07.570Z,99731.47
2023-04-14T02:05:31.527Z,99738.06
2023-04-14T02:10:57.568Z,99738.28
2023-04-14T02:16:20.213Z,99744.41
2023-04-14T02:21:42.655Z,99739.19
2023-04-14T02:27:11.791Z,99746.03
2023-04-14T02:32:36.299Z,99736.94
2023-04-14T02:38:07.353Z,99738.22
2023-04-14T02:43:32.220Z,99732.78
2023-04-14T02:48:55.009Z,99736.19
2023-04-14T02:54:18.700Z,99740.63
2023-04-14T02:59:42.054Z,99739.38
2023-04-14T03:05:05.693Z,99741.19
2023-04-14T03:10:28.199Z,99732.22
2023-04-14T03:15:52.892Z,99733.13
2023-04-14T03:21:15.889Z,99747.69
2023-04-14T03:26:38.822Z,99745.16
2023-04-14T03:32:05.119Z,99754.91
2023-04-14T03:37:28.745Z,99733.94
2023-04-14T03:42:51.059Z,99736.53
2023-04-14T03:48:14.570Z,99755.63
2023-04-14T03:53:38.134Z,99741.69
2023-04-14T03:59:01.323Z,99773.63
2023-04-14T04:04:24.037Z,99772.91
2023-04-14T04:09:48.277Z,99770.72
2023-04-14T04:15:10.479Z,99757.47
2023-04-14T04:20:34.573Z,99772.28
2023-04-14T04:25:56.518Z,99771.56
2023-04-14T04:31:20.005Z,99764.63
2023-04-14T04:36:42.972Z,99784.41
2023-04-14T04:42:06.061Z,99799.44
2023-04-14T04:47:27.886Z,99788.50
2023-04-14T04:52:49.713Z,99798.00
2023-04-14T04:58:11.557Z,99805.97
2023-04-14T05:03:33.447Z,99803.34
2023-04-14T05:08:55.863Z,99788.00
2023-04-14T05:14:17.664Z,99794.00
2023-04-14T05:19:39.520Z,99794.34
2023-04-14T05:25:01.468Z,99788.06
2023-04-14T05:30:23.587Z,99782.66
2023-04-14T05:35:45.925Z,99783.66
2023-04-14T05:41:07.809Z,99777.16
2023-04-14T05:46:29.665Z,99794.63
2023-04-14T05:51:54.210Z,99800.13
2023-04-14T05:57:15.977Z,99794.38
2023-04-14T06:02:41.855Z,99791.09
2023-04-14T06:08:03.895Z,99810.22
2023-04-14T06:13:25.771Z,99814.28
2023-04-14T06:18:47.601Z,99799.69
2023-04-14T06:24:09.457Z,99795.00
2023-04-14T06:29:31.355Z,99812.28
2023-04-14T06:34:53.551Z,99794.41
2023-04-14T06:40:15.376Z,99798.63
2023-04-14T06:45:37.340Z,99813.06
2023-04-14T06:50:59.358Z,99789.13
2023-04-14T06:56:21.208Z,99798.09
2023-04-14T07:01:43.119Z,99783.81
2023-04-14T07:07:05.076Z,99776.69
2023-04-14T07:12:26.927Z,99783.34
2023-04-14T07:17:48.904Z,99770.09
2023-04-14T07:23:10.730Z,99762.75
2023-04-14T07:28:32.615Z,99776.06
2023-04-14T07:33:54.443Z,99773.44
2023-04-14T07:39:16.551Z,99779.81
2023-04-14T07:44:38.510Z,99773.88
2023-04-14T07:50:00.434Z,99782.56
2023-04-14T07:55:22.290Z,99762.84
2023-04-14T08:00:44.181Z,99776.50
2023-04-14T08:06:06.472Z,99772.19
2023-04-14T08:11:28.354Z,99788.19
2023-04-14T08:16:50.338Z,99793.81
2023-04-14T08:22:12.458Z,99778.97
2023-04-14T08:27:34.285Z,99768.56
2023-04-14T08:32:58.897Z,99786.00
2023-04-14T08:38:21.119Z,99790.38
2023-04-14T08:43:43.093Z,99775.78
2023-04-14T08:49:07.222Z,99779.41
2023-04-14T08:54:30.030Z,99794.34
2023-04-14T08:59:52.538Z,99792.66
2023-04-14T09:05:15.390Z,99765.28
2023-04-14T09:10:38.116Z,99784.78
2023-04-14T09:15:59.999Z,99780.75
2023-04-14T09:21:50.329Z,99767.03
2023-04-14T09:27:05.469Z,99768.00
2023-04-14T09:32:27.398Z,99774.94
2023-04-14T09:37:49.197Z,99764.53
2023-04-14T09:43:27.725Z,99764.72
2023-04-14T09:48:56.848Z,99780.31
2023-04-14T09:54:26.186Z,99766.38
2023-04-14T09:59:48.018Z,99755.69
2023-04-14T10:05:10.179Z,99744.69
2023-04-14T10:10:32.218Z,99753.88
2023-04-14T10:15:54.191Z,99759.41
2023-04-14T10:21:16.502Z,99743.91
2023-04-14T10:26:38.385Z,99742.41
2023-04-14T10:32:06.325Z,99731.19
2023-04-14T10:37:28.316Z,99744.81
2023-04-14T10:42:54.439Z,99751.03
2023-04-14T10:48:16.581Z,99772.59
2023-04-14T10:53:48.553Z,99800.00
2023-04-14T10:59:10.411Z,99775.59
2023-04-14T11:04:32.352Z,99744.59
2023-04-14T11:09:58.526Z,99749.09
2023-04-14T11:15:20.396Z,99728.25
2023-04-14T11:20:42.480Z,99708.38
2023-04-14T11:26:08.828Z,99724.59
2023-04-14T11:31:30.728Z,99710.72
2023-04-14T11:36:52.685Z,99709.78
2023-04-14T11:42:14.599Z,99710.91
2023-04-14T11:47:36.463Z,99710.94
2023-04-14T11:53:01.239Z,99707.97
2023-04-14T11:58:26.291Z,99741.88
2023-04-14T12:03:48.348Z,99726.66
2023-04-14T12:09:10.251Z,99694.94
2023-04-14T12:14:32.213Z,99707.03
2023-04-14T12:19:54.036Z,99692.13
2023-04-14T12:25:15.912Z,99688.38
2023-04-14T12:30:37.987Z,99676.44
2023-04-14T12:36:05.075Z,99673.16
2023-04-14T12:41:27.059Z,99656.56
2023-04-14T12:46:52.831Z,99663.81
2023-04-14T12:52:38.165Z,99642.69
2023-04-14T12:58:00.040Z,99655.25
2023-04-14T13:03:22.105Z,99656.19
2023-04-14T13:08:48.956Z,99667.94
2023-04-14T13:14:10.778Z,99651.88
2023-04-14T13:19:32.696Z,99678.09
2023-04-14T13:24:55.427Z,99634.63
2023-04-14T13:30:17.370Z,99648.19
2023-04-14T13:35:39.777Z,99682.13
2023-04-14T13:41:01.663Z,99679.66
2023-04-14T13:46:23.599Z,99633.13
2023-04-14T13:51:45.458Z,99648.53
2023-04-14T13:57:07.303Z,99649.56
2023-04-14T14:02:29.262Z,99642.88
2023-04-14T14:07:51.227Z,99616.59
2023-04-14T14:13:13.069Z,99644.25
2023-04-14T14:18:36.499Z,99605.03
2023-04-14T14:23:58.367Z,99614.88
2023-04-14T14:29:20.205Z,99653.88
2023-04-14T14:34:42.373Z,99634.03
2023-04-14T14:40:04.607Z,99630.69
2023-04-14T14:45:30.423Z,99609.66
2023-04-14T14:50:52.952Z,99635.38
2023-04-14T14:56:14.712Z,99630.34
2023-04-14T15:01:36.695Z,99619.66
2023-04-14T15:06:58.616Z,99636.88
2023-04-14T15:12:20.480Z,99643.72
2023-04-14T15:17:42.343Z,99650.66
2023-04-14T15:23:04.252Z,99643.44
2023-04-14T15:28:26.092Z,99702.72
2023-04-14T15:33:47.884Z,99638.91
2023-04-14T15:39:09.670Z,99628.75
2023-04-14T15:44:31.477Z,99641.88
2023-04-14T15:50:12.997Z,99632.13
2023-04-14T15:55:35.196Z,99648.72
2023-04-14T16:00:57.083Z,99644.06
2023-04-14T16:06:18.972Z,99656.63
2023-04-14T16:11:40.845Z,99670.34
2023-04-14T16:17:02.670Z,99651.88
2023-04-14T16:22:24.490Z,99662.41
2023-04-14T16:27:46.305Z,99659.09
2023-04-14T16:33:08.202Z,99683.88
2023-04-14T16:38:30.526Z,99647.13
2023-04-14T16:43:52.310Z,99668.97
2023-04-14T16:49:14.133Z,99676.66
2023-04-14T16:54:36.017Z,99672.66
2023-04-14T16:59:57.861Z,99684.13
2023-04-14T17:05:20.397Z,99681.13
2023-04-14T17:10:42.251Z,99692.53
2023-04-14T17:16:08.783Z,99698.53
2023-04-14T17:21:31.560Z,99702.06
2023-04-14T17:26:53.359Z,99708.41
2023-04-14T17:32:15.226Z,99695.00
2023-04-14T17:37:37.114Z,99708.94
2023-04-14T17:42:58.984Z,99712.06
2023-04-14T17:48:20.871Z,99730.47
2023-04-14T17:53:42.730Z,99714.03
2023-04-14T17:59:04.598Z,99739.34
2023-04-14T18:04:26.478Z,99734.38
2023-04-14T18:09:48.318Z,99749.38
2023-04-14T18:15:10.288Z,99727.47
2023-04-14T18:20:32.110Z,99751.84
2023-04-14T18:31:26.260Z,99740.47
2023-04-14T18:36:48.125Z,99772.56
2023-04-14T18:42:10.101Z,99766.63
2023-04-14T18:47:31.910Z,99767.19
2023-04-14T18:52:53.749Z,99771.38
2023-04-14T18:58:15.562Z,99769.34
2023-04-14T19:03:37.487Z,99791.09
2023-04-14T19:08:59.584Z,99803.63
2023-04-14T19:14:21.683Z,99789.16
2023-04-14T19:19:43.471Z,99807.81
2023-04-14T19:25:05.674Z,99770.75
2023-04-14T19:30:27.906Z,99787.16
2023-04-14T19:35:49.708Z,99786.63
2023-04-14T19:41:11.634Z,99808.03
2023-04-14T19:46:33.454Z,99775.66
2023-04-14T19:51:55.260Z,99779.34
2023-04-14T19:57:17.136Z,99763.91
2023-04-14T20:02:39.069Z,99786.09
2023-04-14T20:08:00.950Z,99785.06
2023-04-14T20:13:23.985Z,99779.34
2023-04-14T20:18:45.881Z,99785.63
2023-04-14T20:24:07.737Z,99794.22
2023-04-14T20:29:29.614Z,99791.56
2023-04-14T20:34:51.547Z,99759.50
2023-04-14T20:40:13.434Z,99779.50
2023-04-14T20:45:35.606Z,99778.16
2023-04-14T20:50:57.595Z,99776.81
2023-04-14T20:56:19.473Z,99773.50
2023-04-14T21:01:41.370Z,99756.06
2023-04-14T21:07:03.330Z,99780.91
2023-04-14T21:12:25.164Z,99766.53
2023-04-14T21:17:57.569Z,99759.13
2023-04-14T21:23:19.473Z,99742.06
2023-04-14T21:28:41.403Z,99739.81
2023-04-14T21:34:03.231Z,99740.00
2023-04-14T21:39:25.795Z,99759.56
2023-04-14T21:44:47.604Z,99764.78
2023-04-14T21:50:09.937Z,99761.16
2023-04-14T21:55:31.853Z,99766.53
2023-04-14T22:00:53.758Z,99769.56
2023-04-14T22:06:17.476Z,99759.50
2023-04-14T22:11:39.364Z,99752.41
2023-04-14T22:17:01.345Z,99744.31
2023-04-14T22:22:23.200Z,99750.13
2023-04-14T22:27:45.083Z,99742.56
2023-04-14T22:33:07.300Z,99747.50
2023-04-14T22:38:29.574Z,99736.50
2023-04-14T22:43:51.446Z,99751.63
2023-04-14T22:49:13.303Z,99758.84
2023-04-14T22:54:35.191Z,99759.50
2023-04-14T22:59:57.019Z,99759.84
2023-04-14T23:05:20.088Z,99745.09
2023-04-14T23:10:41.935Z,99747.03
2023-04-14T23:16:03.934Z,99755.28
2023-04-14T23:21:25.895Z,99734.84
2023-04-14T23:26:47.761Z,99739.38
2023-04-14T23:32:09.650Z,99750.97
2023-04-14T23:37:31.511Z,99753.38
2023-04-14T23:42:53.317Z,99745.56
2023-04-14T23:48:15.153Z,99738.72
2023-04-14T23:53:36.964Z,99752.53
2023-04-14T23:58:59.520Z,99748.88
